Time;durP1;ratioP1;P1;durP2;ratioP2;P2;SDS_P1;SDS_P2;PMS_P1;PMS_P2;Temp;Humidity;BMP_temperature;BMP_pressure;BME280_temperature;BME280_humidity;BME280_pressure;Samples;Min_cycle;Max_cycle;Signal;HPM_P1;HPM_P2
2022/09/17 00:00:51;;;;;;;20.67;2.08;;;10.80;99.90;;;;;;5053323;28;20477;-76
2022/09/17 00:03:18;;;;;;;13.77;1.95;;;11.00;99.90;;;;;;5052219;28;20036;-76
2022/09/17 00:05:43;;;;;;;15.82;2.22;;;11.00;99.90;;;;;;5053195;28;20036;-77
2022/09/17 00:08:15;;;;;;;17.52;2.30;;;11.00;99.90;;;;;;5053110;28;20033;-76
2022/09/17 00:10:43;;;;;;;14.57;1.83;;;11.00;99.90;;;;;;5052638;28;20032;-76
2022/09/17 00:13:09;;;;;;;11.93;2.05;;;11.00;99.90;;;;;;5038744;28;20108;-77
2022/09/17 00:15:42;;;;;;;12.70;1.50;;;11.00;99.90;;;;;;5053122;28;20116;-77
2022/09/17 00:18:08;;;;;;;16.90;2.75;;;10.90;99.90;;;;;;5051422;28;20104;-75
2022/09/17 00:20:38;;;;;;;12.68;1.70;;;11.00;99.90;;;;;;5053062;28;20100;-75
2022/09/17 00:23:04;;;;;;;15.27;2.17;;;11.00;99.90;;;;;;5053059;28;20029;-75
2022/09/17 00:25:30;;;;;;;12.40;2.03;;;11.00;99.90;;;;;;5052213;28;20087;-76
2022/09/17 00:27:56;;;;;;;8.80;2.20;;;11.10;99.90;;;;;;5053236;28;20090;-75
2022/09/17 00:30:21;;;;;;;15.55;2.33;;;11.00;99.90;;;;;;5056152;28;20457;-75
2022/09/17 00:32:47;;;;;;;15.88;1.80;;;11.00;99.90;;;;;;5056681;28;20032;-75
2022/09/17 00:35:12;;;;;;;12.55;2.10;;;11.10;99.90;;;;;;5055761;28;20551;-75
2022/09/17 00:37:38;;;;;;;10.48;1.60;;;10.90;99.90;;;;;;5052755;28;20016;-76
2022/09/17 00:40:04;;;;;;;18.83;2.50;;;10.90;99.90;;;;;;5052356;28;20040;-76
2022/09/17 00:42:29;;;;;;;6.65;1.23;;;10.90;99.90;;;;;;5052226;28;20013;-75
2022/09/17 00:44:56;;;;;;;11.98;2.22;;;11.00;99.90;;;;;;5041548;28;20029;-75
2022/09/17 00:47:31;;;;;;;9.48;1.55;;;11.00;99.90;;;;;;5049200;28;20025;-76
2022/09/17 00:50:01;;;;;;;11.63;1.38;;;11.00;99.90;;;;;;5052839;28;20082;-76
2022/09/17 00:52:41;;;;;;;6.18;1.27;;;10.90;99.90;;;;;;5051590;28;20044;-76
2022/09/17 00:55:17;;;;;;;10.10;1.42;;;11.00;99.90;;;;;;5052577;28;20037;-75
2022/09/17 00:57:44;;;;;;;10.05;1.60;;;10.80;99.90;;;;;;5052489;28;20096;-75
2022/09/17 01:00:15;;;;;;;12.95;1.63;;;10.80;99.90;;;;;;5051765;28;20033;-76
2022/09/17 01:02:41;;;;;;;;;;;10.80;99.90;;;;;;5052727;28;20460;-77
2022/09/17 01:05:07;;;;;;;11.40;1.38;;;10.70;99.90;;;;;;5052181;28;19911;-75
2022/09/17 01:07:44;;;;;;;10.63;2.03;;;10.80;99.90;;;;;;5051647;28;20081;-76
2022/09/17 01:10:22;;;;;;;9.10;1.77;;;10.90;99.90;;;;;;5052046;28;20021;-76
2022/09/17 01:13:15;;;;;;;18.27;1.70;;;10.90;99.90;;;;;;5039427;28;20039;-77
2022/09/17 01:15:50;;;;;;;11.88;1.38;;;10.90;99.90;;;;;;5040183;28;20067;-76
2022/09/17 01:18:40;;;;;;;6.88;1.30;;;10.80;99.90;;;;;;5052049;28;20469;-76
2022/09/17 01:21:30;;;;;;;8.77;1.05;;;10.70;99.90;;;;;;5051630;28;20025;-77
2022/09/17 01:24:29;;;;;;;6.20;1.33;;;10.50;99.90;;;;;;5052444;28;20053;-77
2022/09/17 01:27:21;;;;;;;22.20;3.13;;;10.60;99.90;;;;;;5052200;28;20032;-77
2022/09/17 01:30:20;;;;;;;5.13;1.38;;;10.50;99.90;;;;;;5055907;28;20033;-77
2022/09/17 01:32:51;;;;;;;7.50;1.25;;;10.50;99.90;;;;;;5060664;28;20029;-76
2022/09/17 01:35:23;;;;;;;;;;;10.50;99.90;;;;;;5056791;28;20065;-77
2022/09/17 01:38:06;;;;;;;7.97;1.67;;;10.30;99.90;;;;;;5048422;28;19905;-76
2022/09/17 01:40:34;;;;;;;10.93;1.50;;;10.40;99.90;;;;;;5053854;28;20064;-76
2022/09/17 01:43:00;;;;;;;11.63;1.98;;;10.50;99.90;;;;;;5056663;28;20131;-76
2022/09/17 01:45:44;;;;;;;11.60;1.95;;;10.40;99.90;;;;;;5041251;28;20025;-76
2022/09/17 01:48:12;;;;;;;12.50;1.92;;;10.50;99.90;;;;;;5037713;28;20041;-76
2022/09/17 01:51:03;;;;;;;13.95;1.70;;;10.50;99.90;;;;;;5040950;28;20477;-76
2022/09/17 01:53:50;;;;;;;;;;;10.50;99.90;;;;;;5056464;28;20044;-77
2022/09/17 01:56:30;;;;;;;14.45;2.17;;;10.40;99.90;;;;;;5055607;28;19917;-76
2022/09/17 01:59:06;;;;;;;7.50;1.40;;;10.30;99.90;;;;;;5056036;28;20028;-76
2022/09/17 02:01:33;;;;;;;6.57;1.48;;;10.20;99.90;;;;;;5052518;28;20026;-77
2022/09/17 02:04:13;;;;;;;15.82;1.80;;;10.20;99.90;;;;;;5045657;28;20029;-77
2022/09/17 02:06:41;;;;;;;;;;;10.10;99.90;;;;;;5056239;28;20480;-77
2022/09/17 02:09:27;;;;;;;21.92;1.80;;;10.10;99.90;;;;;;5055406;28;20003;-77
2022/09/17 02:11:57;;;;;;;14.50;2.58;;;10.20;99.90;;;;;;5040871;28;20040;-77
2022/09/17 02:14:51;;;;;;;7.90;1.65;;;10.20;99.90;;;;;;5055344;28;20029;-75
2022/09/17 02:17:27;;;;;;;12.48;1.60;;;10.20;99.90;;;;;;5053556;28;20033;-77
2022/09/17 02:19:54;;;;;;;7.55;1.30;;;10.20;99.90;;;;;;5055176;28;20063;-78
2022/09/17 02:22:41;;;;;;;13.82;1.52;;;10.20;99.90;;;;;;5055113;28;20040;-77
2022/09/17 02:25:19;;;;;;;12.00;1.30;;;10.30;99.90;;;;;;5039834;28;20405;-77
2022/09/17 02:28:09;;;;;;;8.95;1.23;;;10.30;99.90;;;;;;5055326;28;20020;-77
2022/09/17 02:30:34;;;;;;;12.13;1.93;;;10.30;99.90;;;;;;5055253;28;20021;-77
2022/09/17 02:33:06;;;;;;;12.23;1.63;;;10.30;99.90;;;;;;5054530;28;20094;-77
2022/09/17 02:35:32;;;;;;;10.57;2.03;;;10.20;99.90;;;;;;5056649;28;20124;-77
2022/09/17 02:37:59;;;;;;;9.32;1.70;;;10.10;99.90;;;;;;5056208;28;20102;-77
2022/09/17 02:40:30;;;;;;;6.65;1.10;;;10.10;99.90;;;;;;5056154;28;20106;-77
2022/09/17 02:43:16;;;;;;;6.97;1.10;;;10.00;99.90;;;;;;5059833;28;20066;-77
2022/09/17 02:45:53;;;;;;;8.18;1.60;;;9.90;99.90;;;;;;5060081;28;20029;-76
2022/09/17 02:48:28;;;;;;;3.60;1.17;;;9.80;99.90;;;;;;5062454;28;20072;-77
2022/09/17 02:51:18;;;;;;;8.68;1.65;;;9.70;99.90;;;;;;5060245;28;20032;-76
2022/09/17 02:54:21;;;;;;;4.57;1.00;;;9.70;99.90;;;;;;5042906;28;20473;-76
2022/09/17 02:57:06;;;;;;;7.43;1.30;;;9.60;99.90;;;;;;5043429;28;20037;-76
2022/09/17 02:59:34;;;;;;;5.97;0.98;;;9.60;99.90;;;;;;5053763;28;20358;-76
2022/09/17 03:02:25;;;;;;;7.10;1.42;;;9.60;99.90;;;;;;5054920;28;20017;-76
2022/09/17 03:04:52;;;;;;;7.25;1.40;;;9.70;99.90;;;;;;5054857;28;20025;-76
2022/09/17 03:07:19;;;;;;;9.30;1.33;;;9.80;99.90;;;;;;5053986;28;20120;-78
2022/09/17 03:09:44;;;;;;;8.75;1.75;;;9.70;99.90;;;;;;5054437;28;20078;-76
2022/09/17 03:12:11;;;;;;;9.80;1.95;;;9.80;99.90;;;;;;5054235;28;20021;-76
2022/09/17 03:14:36;;;;;;;16.48;2.25;;;9.80;99.90;;;;;;5053633;28;20500;-77
2022/09/17 03:17:02;;;;;;;10.18;1.70;;;9.90;99.90;;;;;;5054723;28;20025;-77
2022/09/17 03:19:28;;;;;;;14.65;2.28;;;9.90;99.90;;;;;;5054249;28;20131;-76
2022/09/17 03:21:53;;;;;;;22.45;3.28;;;9.90;99.90;;;;;;5053297;28;20017;-77
2022/09/17 03:24:22;;;;;;;13.13;1.55;;;10.50;99.90;;;;;;5053842;28;20053;-76
2022/09/17 03:26:48;;;;;;;13.65;2.35;;;10.10;99.90;;;;;;5054251;28;20062;-76
2022/09/17 03:29:14;;;;;;;10.25;2.22;;;10.10;99.90;;;;;;5053715;28;20040;-76
2022/09/17 03:31:40;;;;;;;13.18;2.00;;;10.10;99.90;;;;;;5054213;28;20021;-76
2022/09/17 03:34:06;;;;;;;19.70;2.03;;;10.20;99.90;;;;;;5054037;28;20032;-77
2022/09/17 03:36:31;;;;;;;22.83;2.47;;;10.20;99.90;;;;;;5053542;28;20033;-76
2022/09/17 03:38:57;;;;;;;14.85;2.05;;;10.10;99.90;;;;;;5054146;28;20025;-77
2022/09/17 03:41:24;;;;;;;9.32;2.55;;;10.00;99.90;;;;;;5053434;28;20021;-76
2022/09/17 03:43:49;;;;;;;16.90;2.25;;;10.00;99.90;;;;;;5053607;28;20071;-76
2022/09/17 03:46:17;;;;;;;10.45;2.05;;;10.10;99.90;;;;;;5054223;28;20029;-76
2022/09/17 03:48:42;;;;;;;13.02;2.28;;;10.10;99.90;;;;;;5053163;28;20017;-76
2022/09/17 03:51:08;;;;;;;16.88;2.33;;;10.10;99.90;;;;;;5054091;28;20086;-76
2022/09/17 03:53:34;;;;;;;13.45;1.73;;;10.10;99.90;;;;;;5044222;28;20533;-77
2022/09/17 03:56:02;;;;;;;13.73;1.80;;;10.20;99.90;;;;;;5049375;28;20128;-75
2022/09/17 03:58:29;;;;;;;16.20;2.63;;;10.30;99.90;;;;;;5054817;28;20052;-76
2022/09/17 04:00:56;;;;;;;10.95;1.77;;;10.20;99.90;;;;;;5054472;28;20829;-76
2022/09/17 04:03:26;;;;;;;13.60;2.50;;;10.20;99.90;;;;;;5052735;28;20033;-76
2022/09/17 04:05:53;;;;;;;14.85;1.85;;;10.30;99.90;;;;;;5053495;28;20079;-76
2022/09/17 04:08:19;;;;;;;9.88;1.77;;;10.30;99.90;;;;;;5040799;28;20033;-76
2022/09/17 04:10:45;;;;;;;7.13;1.52;;;10.20;99.90;;;;;;5066066;28;20049;-76
2022/09/17 04:13:11;;;;;;;8.93;1.88;;;10.20;99.90;;;;;;5056159;28;20465;-76
2022/09/17 04:15:37;;;;;;;10.57;2.17;;;10.30;99.90;;;;;;5053828;28;20055;-78
2022/09/17 04:18:02;;;;;;;8.20;2.03;;;10.20;99.90;;;;;;5052516;28;20461;-77
2022/09/17 04:20:28;;;;;;;15.07;1.55;;;10.10;99.90;;;;;;5053448;28;20111;-75
2022/09/17 04:22:53;;;;;;;11.18;1.77;;;10.30;99.90;;;;;;5053500;28;20534;-76
2022/09/17 04:25:19;;;;;;;10.63;1.42;;;10.30;99.90;;;;;;5052483;28;20072;-77
2022/09/17 04:27:46;;;;;;;8.60;1.60;;;10.30;99.90;;;;;;5053361;28;20491;-76
2022/09/17 04:30:12;;;;;;;13.02;1.52;;;10.30;99.90;;;;;;5052781;28;20086;-76
2022/09/17 04:32:38;;;;;;;9.77;3.03;;;10.30;99.90;;;;;;5052645;28;20509;-76
2022/09/17 04:35:04;;;;;;;14.68;1.95;;;10.20;99.90;;;;;;5053105;28;20131;-76
2022/09/17 04:37:30;;;;;;;19.77;1.80;;;10.30;99.90;;;;;;5052700;28;20450;-76
2022/09/17 04:39:55;;;;;;;12.82;2.08;;;10.20;99.90;;;;;;5052927;28;20071;-77
2022/09/17 04:42:21;;;;;;;14.20;1.73;;;10.20;99.90;;;;;;5052553;28;20037;-76
2022/09/17 04:44:47;;;;;;;18.50;2.13;;;10.10;99.90;;;;;;5052669;28;20068;-77
2022/09/17 04:47:13;;;;;;;13.38;1.70;;;10.20;99.90;;;;;;5052204;28;20021;-76
2022/09/17 04:49:38;;;;;;;8.93;1.90;;;10.20;99.90;;;;;;5052906;28;20025;-76
2022/09/17 04:52:04;;;;;;;14.82;1.70;;;10.20;99.90;;;;;;5052755;28;20032;-76
2022/09/17 04:54:29;;;;;;;13.88;1.85;;;10.20;99.90;;;;;;5054274;28;20029;-75
2022/09/17 04:56:55;;;;;;;8.93;1.42;;;10.30;99.90;;;;;;5043478;28;20018;-75
2022/09/17 04:59:20;;;;;;;10.75;2.05;;;10.40;99.90;;;;;;5047645;28;20112;-77
2022/09/17 05:01:46;;;;;;;9.23;1.20;;;10.60;99.90;;;;;;5053068;28;20461;-78
2022/09/17 05:04:11;;;;;;;9.55;1.17;;;10.70;99.90;;;;;;5052303;28;20570;-77
2022/09/17 05:06:37;;;;;;;6.15;0.93;;;10.70;99.90;;;;;;5052217;28;20396;-76
2022/09/17 05:09:03;;;;;;;8.43;2.45;;;10.70;99.90;;;;;;5052894;28;20074;-76
2022/09/17 05:11:28;;;;;;;10.15;1.58;;;10.50;99.90;;;;;;5052137;28;20021;-78
2022/09/17 05:13:54;;;;;;;8.00;0.88;;;10.40;99.90;;;;;;5052004;28;20021;-79
2022/09/17 05:16:20;;;;;;;11.13;1.35;;;10.30;99.90;;;;;;5052421;28;20032;-79
2022/09/17 05:18:45;;;;;;;3.92;0.68;;;10.10;99.90;;;;;;5052426;28;20024;-78
2022/09/17 05:21:11;;;;;;;4.10;0.85;;;10.00;99.90;;;;;;5051108;28;20587;-77
2022/09/17 05:23:36;;;;;;;9.95;1.10;;;10.00;99.90;;;;;;5051876;28;20041;-78
2022/09/17 05:26:02;;;;;;;6.35;1.35;;;9.90;99.90;;;;;;5051752;28;20028;-78
2022/09/17 05:28:28;;;;;;;7.53;1.05;;;9.70;99.90;;;;;;5051377;28;20107;-79
2022/09/17 05:30:57;;;;;;;4.60;0.70;;;9.60;99.90;;;;;;5052130;28;20048;-77
2022/09/17 05:33:22;;;;;;;5.00;0.70;;;9.50;99.90;;;;;;5055346;28;20021;-77
2022/09/17 05:35:48;;;;;;;3.28;0.75;;;9.40;99.90;;;;;;5052769;28;20083;-77
2022/09/17 05:38:13;;;;;;;5.63;0.93;;;9.40;99.90;;;;;;5051522;28;20438;-77
2022/09/17 05:40:39;;;;;;;5.38;0.88;;;9.40;99.90;;;;;;5051899;28;20031;-78
2022/09/17 05:43:06;;;;;;;4.78;0.95;;;9.40;99.90;;;;;;5051181;28;20021;-77
2022/09/17 05:45:33;;;;;;;10.43;1.25;;;9.50;99.90;;;;;;5050513;28;20017;-77
2022/09/17 05:48:00;;;;;;;9.82;1.30;;;9.50;99.90;;;;;;5041151;28;20021;-77
2022/09/17 05:50:27;;;;;;;7.40;1.20;;;9.50;99.90;;;;;;5051363;28;20025;-79
2022/09/17 05:52:53;;;;;;;8.00;0.90;;;9.50;99.90;;;;;;5051931;28;20100;-77
2022/09/17 05:55:22;;;;;;;6.22;0.95;;;9.40;99.90;;;;;;5050690;28;20124;-77
2022/09/17 05:57:48;;;;;;;6.57;0.88;;;9.40;99.90;;;;;;5051634;28;20743;-77
2022/09/17 06:00:15;;;;;;;7.55;1.20;;;9.30;99.90;;;;;;5049884;28;20029;-78
2022/09/17 06:02:40;;;;;;;6.85;1.15;;;9.40;99.90;;;;;;5031175;28;20048;-79
2022/09/17 06:05:06;;;;;;;6.72;1.23;;;9.50;99.90;;;;;;5042804;28;20466;-77
2022/09/17 06:07:35;;;;;;;7.53;0.93;;;9.60;99.90;;;;;;5031695;28;20036;-76
2022/09/17 06:10:01;;;;;;;6.82;0.98;;;9.70;99.90;;;;;;5030376;28;20389;-78
2022/09/17 06:12:26;;;;;;;7.15;1.13;;;9.80;99.90;;;;;;5036169;28;20034;-77
2022/09/17 06:14:52;;;;;;;12.73;1.08;;;9.80;99.90;;;;;;5031499;28;20552;-77
2022/09/17 06:17:17;;;;;;;5.30;0.95;;;10.00;99.90;;;;;;5033306;28;20029;-78
2022/09/17 06:19:43;;;;;;;6.93;0.93;;;10.10;99.90;;;;;;5035944;28;20021;-77
2022/09/17 06:22:08;;;;;;;4.60;0.93;;;10.30;99.90;;;;;;5036862;28;20076;-77
2022/09/17 06:24:34;;;;;;;7.30;1.10;;;10.50;99.90;;;;;;5035929;28;20095;-77
2022/09/17 06:27:00;;;;;;;4.10;0.90;;;10.70;99.90;;;;;;5042385;28;20029;-77
2022/09/17 06:29:26;;;;;;;8.98;1.05;;;11.00;99.90;;;;;;5035530;28;20029;-77
2022/09/17 06:31:52;;;;;;;9.65;1.10;;;11.20;99.90;;;;;;5034737;28;20108;-77
2022/09/17 06:34:18;;;;;;;10.48;1.60;;;11.30;99.90;;;;;;5046167;28;20052;-77
2022/09/17 06:36:44;;;;;;;4.75;1.10;;;11.40;99.90;;;;;;5052469;28;20021;-77
2022/09/17 06:39:10;;;;;;;5.50;1.38;;;11.30;99.90;;;;;;5046884;28;20084;-78
2022/09/17 06:41:37;;;;;;;9.63;0.93;;;11.20;99.90;;;;;;5039568;28;20604;-78
2022/09/17 06:44:03;;;;;;;5.57;1.45;;;11.10;99.90;;;;;;5040769;28;20057;-77
2022/09/17 06:46:29;;;;;;;6.95;0.90;;;11.10;99.90;;;;;;5041494;28;20022;-79
2022/09/17 06:48:54;;;;;;;5.57;1.10;;;11.00;99.90;;;;;;5043179;28;20017;-79
2022/09/17 06:51:21;;;;;;;6.95;1.00;;;11.10;99.90;;;;;;5040845;28;20389;-78
2022/09/17 06:53:47;;;;;;;11.13;1.58;;;11.30;99.90;;;;;;5042225;28;20440;-78
2022/09/17 06:56:13;;;;;;;4.88;1.00;;;11.40;99.90;;;;;;5043318;28;20436;-78
2022/09/17 06:58:42;;;;;;;5.20;1.17;;;11.50;99.90;;;;;;5045294;28;20120;-76
2022/09/17 07:01:12;;;;;;;7.65;1.20;;;11.50;99.90;;;;;;5049207;28;20029;-77
2022/09/17 07:03:38;;;;;;;5.93;0.80;;;11.40;99.90;;;;;;5042658;28;20029;-77
2022/09/17 07:06:11;;;;;;;8.70;1.30;;;11.40;99.90;;;;;;5042915;28;20104;-76
2022/09/17 07:08:40;;;;;;;14.18;2.90;;;11.40;99.90;;;;;;5042239;28;20029;-76
2022/09/17 07:11:07;;;;;;;5.53;1.33;;;11.30;99.90;;;;;;5035960;28;20037;-78
2022/09/17 07:13:33;;;;;;;7.53;1.23;;;11.20;99.90;;;;;;5036156;28;20044;-77
2022/09/17 07:16:01;;;;;;;11.20;1.45;;;11.20;99.90;;;;;;5036353;28;20033;-77
2022/09/17 07:18:27;;;;;;;11.95;1.10;;;11.10;99.90;;;;;;5038808;28;20018;-77
2022/09/17 07:21:00;;;;;;;12.10;1.50;;;11.10;99.90;;;;;;5035485;28;20101;-78
2022/09/17 07:23:27;;;;;;;10.68;1.10;;;11.20;99.90;;;;;;5032724;28;20021;-78
2022/09/17 07:25:59;;;;;;;7.25;1.00;;;11.30;99.90;;;;;;5036913;28;20033;-77
2022/09/17 07:28:25;;;;;;;6.65;1.20;;;11.30;99.90;;;;;;5032087;28;20036;-77
2022/09/17 07:30:53;;;;;;;9.48;1.02;;;11.50;99.90;;;;;;5040085;28;20136;-78
2022/09/17 07:33:23;;;;;;;6.43;1.10;;;11.70;99.90;;;;;;5032547;28;20022;-78
2022/09/17 07:35:57;;;;;;;7.93;0.70;;;11.80;99.90;;;;;;5036966;28;20121;-78
2022/09/17 07:38:23;;;;;;;8.65;1.25;;;11.80;99.90;;;;;;5038546;28;20017;-75
2022/09/17 07:41:02;;;;;;;5.70;1.20;;;11.90;99.90;;;;;;5036132;28;20021;-78
2022/09/17 07:43:33;;;;;;;7.60;1.02;;;12.00;99.90;;;;;;5049081;28;20033;-77
2022/09/17 07:46:00;;;;;;;;;;;12.10;99.90;;;;;;5035081;28;20067;-77
2022/09/17 07:48:26;;;;;;;8.40;0.98;;;12.30;99.90;;;;;;5041860;28;20431;-78
2022/09/17 07:50:52;;;;;;;7.70;0.98;;;12.30;99.90;;;;;;5034587;28;20121;-79
2022/09/17 07:53:19;;;;;;;7.38;0.90;;;12.30;99.90;;;;;;5033661;28;20112;-78
2022/09/17 07:55:58;;;;;;;9.57;1.98;;;12.40;99.90;;;;;;5046694;28;20036;-77
2022/09/17 07:58:30;;;;;;;7.57;1.00;;;12.50;99.90;;;;;;5041388;28;20028;-78
2022/09/17 08:01:10;;;;;;;5.63;1.23;;;12.50;99.90;;;;;;5054467;28;20032;-78
2022/09/17 08:03:38;;;;;;;5.40;0.98;;;12.60;99.90;;;;;;5053671;28;20385;-77
2022/09/17 08:06:06;;;;;;;16.25;1.10;;;12.60;99.90;;;;;;5053764;28;20036;-79
2022/09/17 08:08:33;;;;;;;4.45;0.98;;;12.70;99.90;;;;;;5052701;28;20507;-78
2022/09/17 08:11:15;;;;;;;2.70;0.60;;;12.70;99.90;;;;;;5047231;28;20043;-78
2022/09/17 08:13:41;;;;;;;2.53;0.73;;;12.60;99.90;;;;;;5049707;28;20017;-76
2022/09/17 08:16:12;;;;;;;1.35;0.50;;;12.40;99.90;;;;;;5050670;28;20059;-77
2022/09/17 08:18:38;;;;;;;6.57;1.35;;;12.20;99.90;;;;;;5033431;28;20565;-79
2022/09/17 08:21:06;;;;;;;3.63;0.80;;;12.00;99.90;;;;;;5033617;28;20065;-79
2022/09/17 08:23:35;;;;;;;2.70;0.55;;;11.90;99.90;;;;;;5041278;28;20444;-78
2022/09/17 08:26:01;;;;;;;6.05;0.73;;;11.80;99.90;;;;;;5040624;28;20025;-77
2022/09/17 08:28:30;;;;;;;3.97;0.63;;;11.80;99.90;;;;;;5047600;28;20373;-83
2022/09/17 08:31:01;;;;;;;5.60;0.93;;;11.80;99.90;;;;;;5043145;28;20032;-78
2022/09/17 08:33:33;;;;;;;4.13;1.15;;;11.90;99.90;;;;;;5038705;28;20064;-78
2022/09/17 08:35:59;;;;;;;7.13;1.15;;;12.10;99.90;;;;;;5033582;28;20056;-79
2022/09/17 08:38:26;;;;;;;3.13;0.65;;;12.20;99.90;;;;;;5031417;28;20087;-79
2022/09/17 08:41:13;;;;;;;5.07;0.70;;;12.30;99.90;;;;;;5034625;28;20091;-81
2022/09/17 08:44:09;;;;;;;7.18;1.50;;;12.60;99.90;;;;;;5033647;28;20029;-79
2022/09/17 08:46:50;;;;;;;9.07;1.38;;;12.20;99.90;;;;;;5034204;28;20451;-79
2022/09/17 08:49:24;;;;;;;7.32;1.20;;;12.10;99.90;;;;;;5037668;28;20048;-78
2022/09/17 08:52:11;;;;;;;11.45;1.23;;;12.10;99.90;;;;;;5042348;28;20029;-76
2022/09/17 08:54:54;;;;;;;16.38;1.75;;;12.00;99.90;;;;;;5050962;28;20573;-77
2022/09/17 08:57:50;;;;;;;9.63;1.35;;;12.10;99.90;;;;;;5048454;28;20062;-78
2022/09/17 09:00:18;;;;;;;6.30;1.10;;;12.40;99.90;;;;;;5041619;28;20374;-76
2022/09/17 09:02:50;;;;;;;9.38;1.27;;;12.70;99.90;;;;;;5037579;28;20029;-78
2022/09/17 09:05:32;;;;;;;7.35;1.38;;;12.70;99.90;;;;;;5039059;28;20037;-79
2022/09/17 09:08:06;;;;;;;4.90;1.42;;;12.70;99.90;;;;;;5041454;28;20021;-78
2022/09/17 09:10:48;;;;;;;5.68;1.00;;;12.70;99.90;;;;;;5040656;28;20048;-79
2022/09/17 09:13:17;;;;;;;2.78;0.65;;;12.80;99.90;;;;;;5045738;28;20029;-80
2022/09/17 09:15:54;;;;;;;3.80;0.65;;;12.70;99.90;;;;;;5049259;28;20060;-80
2022/09/17 09:18:22;;;;;;;2.67;0.70;;;12.90;99.90;;;;;;5049974;28;20116;-80
2022/09/17 09:20:54;;;;;;;4.50;1.50;;;13.00;99.90;;;;;;5042229;28;20037;-80
2022/09/17 09:23:20;;;;;;;3.30;0.57;;;13.10;99.90;;;;;;5048077;28;20048;-81
2022/09/17 09:26:21;;;;;;;12.80;1.13;;;13.10;99.90;;;;;;5039453;28;20123;-81
2022/09/17 09:29:09;;;;;;;1.65;0.50;;;13.00;99.90;;;;;;5029652;28;20069;-80
2022/09/17 09:31:43;;;;;;;2.78;0.60;;;12.80;99.90;;;;;;5031740;28;20556;-78
2022/09/17 09:34:12;;;;;;;5.25;0.55;;;12.40;99.90;;;;;;5035331;28;20477;-77
2022/09/17 09:36:38;;;;;;;1.58;0.45;;;12.10;99.90;;;;;;5049333;28;20041;-80
2022/09/17 09:39:16;;;;;;;1.70;0.50;;;11.80;99.90;;;;;;5038824;28;20424;-81
2022/09/17 09:41:47;;;;;;;3.80;0.50;;;11.70;99.90;;;;;;5036662;28;20033;-83
2022/09/17 09:44:15;;;;;;;6.63;0.85;;;11.60;99.90;;;;;;5041785;28;20070;-81
2022/09/17 09:46:59;;;;;;;0.68;0.30;;;11.60;99.90;;;;;;5050807;28;20431;-86
2022/09/17 09:49:25;;;;;;;2.95;0.77;;;11.60;99.90;;;;;;5049395;28;20036;-85
2022/09/17 09:52:05;;;;;;;3.20;0.60;;;11.70;99.90;;;;;;5048815;28;20108;-84
2022/09/17 09:54:33;;;;;;;3.28;0.90;;;11.80;99.90;;;;;;5056350;28;20025;-87
2022/09/17 09:57:04;;;;;;;5.50;1.02;;;11.90;99.90;;;;;;5058453;28;20036;-83
2022/09/17 09:59:30;;;;;;;6.18;0.85;;;12.10;99.90;;;;;;5058884;28;20044;-84
2022/09/17 10:01:56;;;;;;;7.85;1.10;;;12.30;99.90;;;;;;5044487;28;20025;-82
2022/09/17 10:04:26;;;;;;;8.00;2.22;;;12.60;99.90;;;;;;5053480;28;20045;-83
2022/09/17 10:06:54;;;;;;;3.55;1.08;;;12.60;99.90;;;;;;5039825;28;20496;-82
2022/09/17 10:09:21;;;;;;;9.98;1.55;;;12.70;99.90;;;;;;5038780;28;20029;-84
2022/09/17 10:12:16;;;;;;;5.35;0.73;;;12.90;99.90;;;;;;5040287;28;20563;-84
2022/09/17 10:14:44;;;;;;;4.25;0.95;;;13.00;99.90;;;;;;5039776;28;20040;-84
2022/09/17 10:17:19;;;;;;;4.65;0.70;;;13.10;99.90;;;;;;5038178;28;20029;-85
2022/09/17 10:20:10;;;;;;;9.32;2.50;;;13.30;99.90;;;;;;5055710;28;20048;-87
2022/09/17 10:22:43;;;;;;;3.83;0.73;;;13.50;99.90;;;;;;5045377;28;20030;-83
2022/09/17 10:25:32;;;;;;;5.28;1.17;;;13.60;99.90;;;;;;5038219;28;20369;-82
2022/09/17 10:28:03;;;;;;;7.78;1.00;;;13.40;99.90;;;;;;5038516;28;20151;-81
2022/09/17 10:30:29;;;;;;;;;;;13.20;99.90;;;;;;5043228;28;20052;-81
2022/09/17 10:33:17;;;;;;;10.15;1.45;;;13.10;99.90;;;;;;5047341;28;19955;-83
2022/09/17 10:35:56;;;;;;;3.75;0.80;;;13.00;99.90;;;;;;5045981;28;20507;-80
2022/09/17 10:38:43;;;;;;;5.45;1.38;;;12.90;99.90;;;;;;5044186;28;20032;-81
2022/09/17 10:41:13;;;;;;;4.60;1.33;;;13.00;99.90;;;;;;5041316;28;20033;-82
2022/09/17 10:43:40;;;;;;;12.23;1.98;;;13.10;99.90;;;;;;5042152;28;20029;-82
2022/09/17 10:46:09;;;;;;;7.35;1.30;;;13.30;99.90;;;;;;5067591;28;20051;-82
2022/09/17 10:48:42;;;;;;;3.67;1.67;;;13.50;99.90;;;;;;5077057;28;20095;-82
2022/09/17 10:51:09;;;;;;;3.67;1.20;;;13.90;99.90;;;;;;5070920;28;20016;-84
2022/09/17 10:54:17;;;;;;;8.50;1.42;;;13.90;99.90;;;;;;5064878;28;20096;-84
2022/09/17 10:56:53;;;;;;;10.38;1.70;;;14.10;99.90;;;;;;5058835;28;20048;-81
2022/09/17 10:59:55;;;;;;;6.70;1.42;;;14.30;99.90;;;;;;5062844;28;20040;-82
2022/09/17 11:02:33;;;;;;;21.65;2.15;;;14.30;99.90;;;;;;5062426;28;20106;-84
2022/09/17 11:05:33;;;;;;;11.30;1.50;;;14.40;99.90;;;;;;5050224;28;20032;-82
2022/09/17 11:08:20;;;;;;;12.57;1.97;;;14.40;99.90;;;;;;5056122;28;20025;-82
2022/09/17 11:11:05;;;;;;;10.50;1.50;;;14.30;99.90;;;;;;5058857;28;20025;-80
2022/09/17 11:13:54;;;;;;;11.20;2.15;;;14.00;99.90;;;;;;5043901;28;20021;-81
2022/09/17 11:16:40;;;;;;;15.00;1.98;;;13.70;99.90;;;;;;5056475;28;20039;-82
2022/09/17 11:19:30;;;;;;;11.50;2.55;;;13.50;99.90;;;;;;5053049;28;20049;-82
2022/09/17 11:22:07;;;;;;;13.05;2.17;;;13.60;99.90;;;;;;5055886;28;20024;-83
2022/09/17 11:24:57;;;;;;;8.55;2.20;;;13.80;99.90;;;;;;5056531;28;20488;-82
2022/09/17 11:27:34;;;;;;;11.40;1.45;;;13.90;99.90;;;;;;5062814;28;20033;-83
2022/09/17 11:30:18;;;;;;;10.82;2.13;;;14.20;99.90;;;;;;5058942;28;20028;-83
2022/09/17 11:33:18;;;;;;;16.75;2.35;;;14.40;99.90;;;;;;5058030;28;20037;-83
2022/09/17 11:36:00;;;;;;;9.37;1.87;;;14.70;99.90;;;;;;5056590;28;20538;-82
2022/09/17 11:38:36;;;;;;;10.75;1.92;;;14.90;99.90;;;;;;5052031;28;20314;-82
2022/09/17 11:41:07;;;;;;;16.85;3.20;;;14.90;99.90;;;;;;5047951;28;20029;-82
2022/09/17 11:43:35;;;;;;;9.20;2.00;;;15.10;99.90;;;;;;5055314;28;20045;-82
2022/09/17 11:46:30;;;;;;;7.15;2.60;;;15.40;99.90;;;;;;5040992;28;20496;-82
2022/09/17 11:49:25;;;;;;;13.27;1.77;;;15.60;99.90;;;;;;5042354;28;20033;-80
2022/09/17 11:51:56;;;;;;;9.80;1.60;;;15.70;99.90;;;;;;5048466;28;20025;-80
2022/09/17 11:54:43;;;;;;;9.60;1.70;;;15.30;99.90;;;;;;5036461;28;20030;-81
2022/09/17 11:57:15;;;;;;;5.57;1.63;;;15.10;99.90;;;;;;5054724;28;20029;-80
2022/09/17 11:59:52;;;;;;;4.85;1.27;;;15.10;99.90;;;;;;5054981;28;20029;-79
2022/09/17 12:02:32;;;;;;;10.75;1.35;;;15.20;99.90;;;;;;5053940;28;20393;-79
2022/09/17 12:05:27;;;;;;;12.05;2.25;;;15.20;99.70;;;;;;5054152;28;20167;-78
2022/09/17 12:08:26;;;;;;;7.65;1.38;;;15.30;99.90;;;;;;5053588;28;20028;-79
2022/09/17 12:11:16;;;;;;;6.03;1.23;;;15.40;99.20;;;;;;5054063;28;20369;-80
2022/09/17 12:13:47;;;;;;;6.50;1.70;;;15.40;99.70;;;;;;5040716;28;20021;-79
2022/09/17 12:16:21;;;;;;;9.85;2.15;;;15.60;99.90;;;;;;5052706;28;20041;-78
2022/09/17 12:19:04;;;;;;;6.38;2.13;;;15.70;99.90;;;;;;5048614;28;20027;-78
2022/09/17 12:21:41;;;;;;;8.02;2.55;;;15.80;99.90;;;;;;5034341;28;20477;-78
2022/09/17 12:24:15;;;;;;;5.72;1.40;;;15.80;99.90;;;;;;5051815;28;20060;-78
2022/09/17 12:27:07;;;;;;;5.50;1.40;;;15.90;99.90;;;;;;5045732;28;20034;-77
2022/09/17 12:30:05;;;;;;;14.45;1.80;;;15.90;99.30;;;;;;5042996;28;20025;-77
2022/09/17 12:32:46;;;;;;;9.20;1.55;;;16.00;99.90;;;;;;5042420;28;20032;-78
2022/09/17 12:35:40;;;;;;;8.95;2.17;;;16.00;99.00;;;;;;5033396;28;20030;-78
2022/09/17 12:38:22;;;;;;;9.80;1.60;;;16.00;99.10;;;;;;5033093;28;20056;-78
2022/09/17 12:41:23;;;;;;;6.43;1.70;;;16.00;99.70;;;;;;5034145;28;20052;-77
2022/09/17 12:44:17;;;;;;;8.20;2.33;;;16.00;99.90;;;;;;5045087;28;20100;-80
2022/09/17 12:47:20;;;;;;;12.93;1.55;;;16.10;99.90;;;;;;5034498;28;20092;-79
2022/09/17 12:50:01;;;;;;;11.05;1.55;;;16.20;98.30;;;;;;5036482;28;20021;-79
2022/09/17 12:52:53;;;;;;;;;;;16.40;99.90;;;;;;5035944;28;20300;-78
2022/09/17 12:55:29;;;;;;;14.23;1.60;;;16.40;99.00;;;;;;5043630;28;19921;-78
2022/09/17 12:58:21;;;;;;;12.57;1.50;;;16.50;98.20;;;;;;5052285;28;20028;-79
2022/09/17 13:00:54;;;;;;;9.90;2.10;;;16.50;98.10;;;;;;5052957;28;20087;-78
2022/09/17 13:03:28;;;;;;;7.40;1.80;;;16.80;99.00;;;;;;5038480;28;20021;-79
2022/09/17 13:06:09;;;;;;;10.85;2.03;;;16.50;98.50;;;;;;5051922;28;20033;-78
2022/09/17 13:08:51;;;;;;;6.38;1.27;;;16.50;98.70;;;;;;5040908;28;20083;-80
2022/09/17 13:11:51;;;;;;;10.73;2.03;;;16.60;99.60;;;;;;5051987;28;20051;-80
2022/09/17 13:14:53;;;;;;;15.35;1.67;;;16.70;98.90;;;;;;5053121;28;20021;-79
2022/09/17 13:17:50;;;;;;;8.55;2.13;;;16.70;98.20;;;;;;5046824;28;20033;-78